sensor_id;sensor_type;location;lat;lon;timestamp;P1;durP1;ratioP1;P2;durP2;ratioP2
19225;SDS011;9747;48.536;12.522;2023-03-16T00:02:20;1.60;;;1.50;;
19225;SDS011;9747;48.536;12.522;2023-03-16T00:04:48;1.27;;;1.27;;
19225;SDS011;9747;48.536;12.522;2023-03-16T00:07:16;1.70;;;1.60;;
19225;SDS011;9747;48.536;12.522;2023-03-16T00:09:45;1.77;;;1.67;;
19225;SDS011;9747;48.536;12.522;2023-03-16T00:12:13;1.85;;;1.63;;
19225;SDS011;9747;48.536;12.522;2023-03-16T00:14:44;1.70;;;1.60;;
19225;SDS011;9747;48.536;12.522;2023-03-16T00:17:15;1.70;;;1.60;;
19225;SDS011;9747;48.536;12.522;2023-03-16T00:19:45;1.67;;;1.58;;
19225;SDS011;9747;48.536;12.522;2023-03-16T00:22:13;1.80;;;1.70;;
19225;SDS011;9747;48.536;12.522;2023-03-16T00:24:41;1.70;;;1.60;;
19225;SDS011;9747;48.536;12.522;2023-03-16T00:27:09;1.60;;;1.50;;
19225;SDS011;9747;48.536;12.522;2023-03-16T00:29:39;1.50;;;1.40;;
19225;SDS011;9747;48.536;12.522;2023-03-16T00:32:12;1.70;;;1.60;;
19225;SDS011;9747;48.536;12.522;2023-03-16T00:34:42;1.60;;;1.50;;
19225;SDS011;9747;48.536;12.522;2023-03-16T00:37:11;1.50;;;1.40;;
19225;SDS011;9747;48.536;12.522;2023-03-16T00:39:40;1.40;;;1.40;;
19225;SDS011;9747;48.536;12.522;2023-03-16T00:42:12;1.83;;;1.65;;
19225;SDS011;9747;48.536;12.522;2023-03-16T00:44:41;1.50;;;1.40;;
19225;SDS011;9747;48.536;12.522;2023-03-16T00:47:09;1.60;;;1.50;;
19225;SDS011;9747;48.536;12.522;2023-03-16T00:49:41;1.55;;;1.42;;
19225;SDS011;9747;48.536;12.522;2023-03-16T00:52:10;1.38;;;1.38;;
19225;SDS011;9747;48.536;12.522;2023-03-16T00:54:39;1.45;;;1.40;;
19225;SDS011;9747;48.536;12.522;2023-03-16T00:57:11;1.45;;;1.35;;
19225;SDS011;9747;48.536;12.522;2023-03-16T00:59:40;1.42;;;1.33;;
19225;SDS011;9747;48.536;12.522;2023-03-16T01:02:08;1.60;;;1.50;;
19225;SDS011;9747;48.536;12.522;2023-03-16T01:04:37;1.60;;;1.42;;
19225;SDS011;9747;48.536;12.522;2023-03-16T01:07:07;1.20;;;1.20;;
19225;SDS011;9747;48.536;12.522;2023-03-16T01:09:36;1.60;;;1.50;;
19225;SDS011;9747;48.536;12.522;2023-03-16T01:12:04;1.50;;;1.40;;
19225;SDS011;9747;48.536;12.522;2023-03-16T01:14:33;1.50;;;1.40;;
19225;SDS011;9747;48.536;12.522;2023-03-16T01:17:02;1.20;;;1.20;;
19225;SDS011;9747;48.536;12.522;2023-03-16T01:19:33;1.65;;;1.55;;
19225;SDS011;9747;48.536;12.522;2023-03-16T01:22:02;2.05;;;1.50;;
19225;SDS011;9747;48.536;12.522;2023-03-16T01:24:32;1.30;;;1.30;;
19225;SDS011;9747;48.536;12.522;2023-03-16T01:27:00;1.52;;;1.42;;
19225;SDS011;9747;48.536;12.522;2023-03-16T01:29:29;1.30;;;1.20;;
19225;SDS011;9747;48.536;12.522;2023-03-16T01:31:57;1.30;;;1.20;;
19225;SDS011;9747;48.536;12.522;2023-03-16T01:34:25;1.25;;;1.25;;
19225;SDS011;9747;48.536;12.522;2023-03-16T01:36:54;1.40;;;1.40;;
19225;SDS011;9747;48.536;12.522;2023-03-16T01:39:28;1.30;;;1.30;;
19225;SDS011;9747;48.536;12.522;2023-03-16T01:41:57;1.30;;;1.30;;
19225;SDS011;9747;48.536;12.522;2023-03-16T01:44:25;1.45;;;1.40;;
19225;SDS011;9747;48.536;12.522;2023-03-16T01:46:58;1.40;;;1.30;;
19225;SDS011;9747;48.536;12.522;2023-03-16T01:49:27;1.25;;;1.23;;
19225;SDS011;9747;48.536;12.522;2023-03-16T01:51:58;1.20;;;1.10;;
19225;SDS011;9747;48.536;12.522;2023-03-16T01:54:30;1.52;;;1.42;;
19225;SDS011;9747;48.536;12.522;2023-03-16T01:57:02;1.10;;;1.10;;
19225;SDS011;9747;48.536;12.522;2023-03-16T01:59:34;1.33;;;1.17;;
19225;SDS011;9747;48.536;12.522;2023-03-16T02:02:06;1.30;;;1.30;;
19225;SDS011;9747;48.536;12.522;2023-03-16T02:04:36;1.13;;;1.13;;
19225;SDS011;9747;48.536;12.522;2023-03-16T02:07:13;1.00;;;1.00;;
19225;SDS011;9747;48.536;12.522;2023-03-16T02:09:43;1.50;;;1.40;;
19225;SDS011;9747;48.536;12.522;2023-03-16T02:12:15;1.15;;;1.13;;
19225;SDS011;9747;48.536;12.522;2023-03-16T02:14:50;1.15;;;1.15;;
19225;SDS011;9747;48.536;12.522;2023-03-16T02:17:18;1.25;;;1.20;;
19225;SDS011;9747;48.536;12.522;2023-03-16T02:19:52;1.23;;;1.20;;
19225;SDS011;9747;48.536;12.522;2023-03-16T02:22:34;1.10;;;1.10;;
19225;SDS011;9747;48.536;12.522;2023-03-16T02:25:03;1.13;;;1.13;;
19225;SDS011;9747;48.536;12.522;2023-03-16T02:27:34;1.40;;;1.27;;
19225;SDS011;9747;48.536;12.522;2023-03-16T02:30:08;1.05;;;1.05;;
19225;SDS011;9747;48.536;12.522;2023-03-16T02:32:49;1.38;;;1.20;;
19225;SDS011;9747;48.536;12.522;2023-03-16T02:35:17;1.20;;;1.20;;
19225;SDS011;9747;48.536;12.522;2023-03-16T02:37:46;1.48;;;1.40;;
19225;SDS011;9747;48.536;12.522;2023-03-16T02:40:15;1.05;;;1.05;;
19225;SDS011;9747;48.536;12.522;2023-03-16T02:42:53;1.20;;;1.20;;
19225;SDS011;9747;48.536;12.522;2023-03-16T02:45:30;1.30;;;1.30;;
19225;SDS011;9747;48.536;12.522;2023-03-16T02:48:01;1.25;;;1.25;;
19225;SDS011;9747;48.536;12.522;2023-03-16T02:50:32;1.17;;;1.13;;
19225;SDS011;9747;48.536;12.522;2023-03-16T02:53:01;1.27;;;1.27;;
19225;SDS011;9747;48.536;12.522;2023-03-16T02:55:28;1.35;;;1.30;;
19225;SDS011;9747;48.536;12.522;2023-03-16T02:57:56;1.33;;;1.10;;
19225;SDS011;9747;48.536;12.522;2023-03-16T03:00:23;1.02;;;1.02;;
19225;SDS011;9747;48.536;12.522;2023-03-16T03:02:52;1.20;;;1.20;;
19225;SDS011;9747;48.536;12.522;2023-03-16T03:05:19;1.38;;;1.30;;
19225;SDS011;9747;48.536;12.522;2023-03-16T03:07:47;1.10;;;1.10;;
19225;SDS011;9747;48.536;12.522;2023-03-16T03:10:14;1.20;;;1.20;;
19225;SDS011;9747;48.536;12.522;2023-03-16T03:12:43;1.33;;;1.33;;
19225;SDS011;9747;48.536;12.522;2023-03-16T03:15:13;1.27;;;1.20;;
19225;SDS011;9747;48.536;12.522;2023-03-16T03:17:56;1.20;;;1.20;;
19225;SDS011;9747;48.536;12.522;2023-03-16T03:20:26;1.30;;;1.30;;
19225;SDS011;9747;48.536;12.522;2023-03-16T03:22:53;1.42;;;1.40;;
19225;SDS011;9747;48.536;12.522;2023-03-16T03:25:21;1.17;;;1.17;;
19225;SDS011;9747;48.536;12.522;2023-03-16T03:27:52;1.20;;;1.20;;
19225;SDS011;9747;48.536;12.522;2023-03-16T03:30:20;1.33;;;1.33;;
19225;SDS011;9747;48.536;12.522;2023-03-16T03:32:49;1.38;;;1.30;;
19225;SDS011;9747;48.536;12.522;2023-03-16T03:35:20;1.20;;;1.20;;
19225;SDS011;9747;48.536;12.522;2023-03-16T03:37:48;1.38;;;1.27;;
19225;SDS011;9747;48.536;12.522;2023-03-16T03:40:16;1.30;;;1.30;;
19225;SDS011;9747;48.536;12.522;2023-03-16T03:42:48;1.50;;;1.40;;
19225;SDS011;9747;48.536;12.522;2023-03-16T03:45:16;1.10;;;1.10;;
19225;SDS011;9747;48.536;12.522;2023-03-16T03:47:44;1.30;;;1.30;;
19225;SDS011;9747;48.536;12.522;2023-03-16T03:50:17;1.20;;;1.20;;
19225;SDS011;9747;48.536;12.522;2023-03-16T03:52:53;1.25;;;1.25;;
19225;SDS011;9747;48.536;12.522;2023-03-16T03:55:21;1.85;;;1.50;;
19225;SDS011;9747;48.536;12.522;2023-03-16T03:57:48;1.17;;;1.17;;
19225;SDS011;9747;48.536;12.522;2023-03-16T04:00:16;1.27;;;1.27;;
19225;SDS011;9747;48.536;12.522;2023-03-16T04:02:46;1.25;;;1.25;;
19225;SDS011;9747;48.536;12.522;2023-03-16T04:05:24;1.35;;;1.35;;
19225;SDS011;9747;48.536;12.522;2023-03-16T04:07:52;1.60;;;1.50;;
19225;SDS011;9747;48.536;12.522;2023-03-16T04:10:21;1.33;;;1.33;;
19225;SDS011;9747;48.536;12.522;2023-03-16T04:12:50;1.33;;;1.30;;
19225;SDS011;9747;48.536;12.522;2023-03-16T04:15:18;1.42;;;1.30;;
19225;SDS011;9747;48.536;12.522;2023-03-16T04:17:58;1.40;;;1.40;;
19225;SDS011;9747;48.536;12.522;2023-03-16T04:20:28;1.33;;;1.33;;
19225;SDS011;9747;48.536;12.522;2023-03-16T04:22:56;1.35;;;1.25;;
19225;SDS011;9747;48.536;12.522;2023-03-16T04:25:24;1.48;;;1.48;;
19225;SDS011;9747;48.536;12.522;2023-03-16T04:27:54;1.55;;;1.50;;
19225;SDS011;9747;48.536;12.522;2023-03-16T04:30:26;1.55;;;1.50;;
19225;SDS011;9747;48.536;12.522;2023-03-16T04:33:03;1.50;;;1.40;;
19225;SDS011;9747;48.536;12.522;2023-03-16T04:35:33;1.65;;;1.55;;
19225;SDS011;9747;48.536;12.522;2023-03-16T04:38:00;1.40;;;1.30;;
19225;SDS011;9747;48.536;12.522;2023-03-16T04:40:37;1.13;;;1.13;;
19225;SDS011;9747;48.536;12.522;2023-03-16T04:43:12;1.50;;;1.50;;
19225;SDS011;9747;48.536;12.522;2023-03-16T04:45:41;1.50;;;1.50;;
19225;SDS011;9747;48.536;12.522;2023-03-16T04:48:09;1.45;;;1.45;;
19225;SDS011;9747;48.536;12.522;2023-03-16T04:50:39;1.40;;;1.30;;
19225;SDS011;9747;48.536;12.522;2023-03-16T04:53:06;1.30;;;1.30;;
19225;SDS011;9747;48.536;12.522;2023-03-16T04:55:35;1.73;;;1.63;;
19225;SDS011;9747;48.536;12.522;2023-03-16T04:58:03;1.42;;;1.40;;
19225;SDS011;9747;48.536;12.522;2023-03-16T05:00:34;1.55;;;1.40;;
19225;SDS011;9747;48.536;12.522;2023-03-16T05:03:06;1.40;;;1.40;;
19225;SDS011;9747;48.536;12.522;2023-03-16T05:05:34;1.70;;;1.52;;
19225;SDS011;9747;48.536;12.522;2023-03-16T05:08:03;1.30;;;1.30;;
19225;SDS011;9747;48.536;12.522;2023-03-16T05:10:33;1.40;;;1.40;;
19225;SDS011;9747;48.536;12.522;2023-03-16T05:13:01;1.45;;;1.45;;
19225;SDS011;9747;48.536;12.522;2023-03-16T05:15:29;1.38;;;1.38;;
19225;SDS011;9747;48.536;12.522;2023-03-16T05:18:02;1.30;;;1.30;;
19225;SDS011;9747;48.536;12.522;2023-03-16T05:20:29;1.77;;;1.60;;
19225;SDS011;9747;48.536;12.522;2023-03-16T05:23:00;1.45;;;1.40;;
19225;SDS011;9747;48.536;12.522;2023-03-16T05:25:34;1.40;;;1.40;;
19225;SDS011;9747;48.536;12.522;2023-03-16T05:28:04;1.20;;;1.20;;
19225;SDS011;9747;48.536;12.522;2023-03-16T05:30:42;1.67;;;1.58;;
19225;SDS011;9747;48.536;12.522;2023-03-16T05:33:14;1.90;;;1.45;;
19225;SDS011;9747;48.536;12.522;2023-03-16T05:35:45;1.75;;;1.40;;
19225;SDS011;9747;48.536;12.522;2023-03-16T05:38:13;1.40;;;1.40;;
19225;SDS011;9747;48.536;12.522;2023-03-16T05:40:44;1.67;;;1.58;;
19225;SDS011;9747;48.536;12.522;2023-03-16T05:43:29;1.52;;;1.52;;
19225;SDS011;9747;48.536;12.522;2023-03-16T05:45:57;1.65;;;1.40;;
19225;SDS011;9747;48.536;12.522;2023-03-16T05:48:25;1.67;;;1.50;;
19225;SDS011;9747;48.536;12.522;2023-03-16T05:50:55;1.67;;;1.58;;
19225;SDS011;9747;48.536;12.522;2023-03-16T05:53:27;2.53;;;1.50;;
19225;SDS011;9747;48.536;12.522;2023-03-16T05:56:05;1.75;;;1.65;;
19225;SDS011;9747;48.536;12.522;2023-03-16T05:58:38;2.40;;;1.50;;
19225;SDS011;9747;48.536;12.522;2023-03-16T06:01:07;2.40;;;1.88;;
19225;SDS011;9747;48.536;12.522;2023-03-16T06:03:37;2.35;;;1.60;;
19225;SDS011;9747;48.536;12.522;2023-03-16T06:06:07;2.25;;;1.60;;
19225;SDS011;9747;48.536;12.522;2023-03-16T06:08:49;1.98;;;1.67;;
19225;SDS011;9747;48.536;12.522;2023-03-16T06:11:20;2.92;;;1.63;;
19225;SDS011;9747;48.536;12.522;2023-03-16T06:13:48;2.80;;;1.60;;
19225;SDS011;9747;48.536;12.522;2023-03-16T06:16:16;1.80;;;1.70;;
19225;SDS011;9747;48.536;12.522;2023-03-16T06:18:44;1.95;;;1.60;;
19225;SDS011;9747;48.536;12.522;2023-03-16T06:21:11;1.98;;;1.70;;
19225;SDS011;9747;48.536;12.522;2023-03-16T06:23:39;2.53;;;1.80;;
19225;SDS011;9747;48.536;12.522;2023-03-16T06:26:08;1.60;;;1.42;;
19225;SDS011;9747;48.536;12.522;2023-03-16T06:28:40;2.83;;;1.60;;
19225;SDS011;9747;48.536;12.522;2023-03-16T06:31:08;2.00;;;1.80;;
19225;SDS011;9747;48.536;12.522;2023-03-16T06:33:36;3.13;;;1.60;;
19225;SDS011;9747;48.536;12.522;2023-03-16T06:36:03;2.70;;;1.80;;
19225;SDS011;9747;48.536;12.522;2023-03-16T06:38:37;4.03;;;1.70;;
19225;SDS011;9747;48.536;12.522;2023-03-16T06:41:14;2.25;;;1.83;;
19225;SDS011;9747;48.536;12.522;2023-03-16T06:43:45;2.53;;;1.60;;
19225;SDS011;9747;48.536;12.522;2023-03-16T06:46:13;2.60;;;1.95;;
19225;SDS011;9747;48.536;12.522;2023-03-16T06:48:40;2.42;;;2.03;;
19225;SDS011;9747;48.536;12.522;2023-03-16T06:51:08;3.25;;;2.00;;
19225;SDS011;9747;48.536;12.522;2023-03-16T06:53:35;4.43;;;2.47;;
19225;SDS011;9747;48.536;12.522;2023-03-16T06:56:03;3.55;;;2.40;;
19225;SDS011;9747;48.536;12.522;2023-03-16T06:58:35;3.08;;;2.03;;
19225;SDS011;9747;48.536;12.522;2023-03-16T07:01:04;2.10;;;2.00;;
19225;SDS011;9747;48.536;12.522;2023-03-16T07:03:32;3.25;;;2.30;;
19225;SDS011;9747;48.536;12.522;2023-03-16T07:06:07;2.45;;;1.95;;
19225;SDS011;9747;48.536;12.522;2023-03-16T07:08:35;4.05;;;2.38;;
19225;SDS011;9747;48.536;12.522;2023-03-16T07:11:03;3.28;;;2.67;;
19225;SDS011;9747;48.536;12.522;2023-03-16T07:13:31;2.95;;;2.45;;
19225;SDS011;9747;48.536;12.522;2023-03-16T07:15:59;2.17;;;1.98;;
19225;SDS011;9747;48.536;12.522;2023-03-16T07:18:30;2.83;;;2.20;;
19225;SDS011;9747;48.536;12.522;2023-03-16T07:20:59;2.50;;;2.00;;
19225;SDS011;9747;48.536;12.522;2023-03-16T07:23:27;3.17;;;2.30;;
19225;SDS011;9747;48.536;12.522;2023-03-16T07:26:01;3.17;;;2.00;;
19225;SDS011;9747;48.536;12.522;2023-03-16T07:28:32;2.53;;;2.00;;
19225;SDS011;9747;48.536;12.522;2023-03-16T07:31:01;2.70;;;2.13;;
19225;SDS011;9747;48.536;12.522;2023-03-16T07:33:36;2.80;;;2.13;;
19225;SDS011;9747;48.536;12.522;2023-03-16T07:36:07;2.33;;;2.13;;
19225;SDS011;9747;48.536;12.522;2023-03-16T07:38:39;3.70;;;2.10;;
19225;SDS011;9747;48.536;12.522;2023-03-16T07:41:08;4.13;;;3.28;;
19225;SDS011;9747;48.536;12.522;2023-03-16T07:43:36;3.78;;;2.40;;
19225;SDS011;9747;48.536;12.522;2023-03-16T07:46:08;4.40;;;2.15;;
19225;SDS011;9747;48.536;12.522;2023-03-16T07:48:39;2.67;;;2.30;;
19225;SDS011;9747;48.536;12.522;2023-03-16T07:51:07;5.45;;;2.83;;
19225;SDS011;9747;48.536;12.522;2023-03-16T07:53:36;2.40;;;2.20;;
19225;SDS011;9747;48.536;12.522;2023-03-16T07:56:17;2.85;;;2.30;;
19225;SDS011;9747;48.536;12.522;2023-03-16T07:58:50;2.80;;;2.25;;
19225;SDS011;9747;48.536;12.522;2023-03-16T08:01:17;2.70;;;2.10;;
19225;SDS011;9747;48.536;12.522;2023-03-16T08:03:48;3.20;;;1.88;;
19225;SDS011;9747;48.536;12.522;2023-03-16T08:06:16;2.65;;;2.05;;
19225;SDS011;9747;48.536;12.522;2023-03-16T08:08:44;2.58;;;2.00;;
19225;SDS011;9747;48.536;12.522;2023-03-16T08:11:19;2.60;;;1.98;;
19225;SDS011;9747;48.536;12.522;2023-03-16T08:13:54;2.92;;;1.88;;
19225;SDS011;9747;48.536;12.522;2023-03-16T08:16:27;2.50;;;1.80;;
19225;SDS011;9747;48.536;12.522;2023-03-16T08:18:57;3.10;;;1.85;;
19225;SDS011;9747;48.536;12.522;2023-03-16T08:21:25;1.95;;;1.67;;
19225;SDS011;9747;48.536;12.522;2023-03-16T08:23:54;2.85;;;1.98;;
19225;SDS011;9747;48.536;12.522;2023-03-16T08:26:22;3.83;;;1.70;;
19225;SDS011;9747;48.536;12.522;2023-03-16T08:28:54;1.85;;;1.75;;
19225;SDS011;9747;48.536;12.522;2023-03-16T08:31:27;1.95;;;1.77;;
19225;SDS011;9747;48.536;12.522;2023-03-16T08:34:23;2.22;;;2.03;;
19225;SDS011;9747;48.536;12.522;2023-03-16T08:36:52;2.90;;;2.00;;
19225;SDS011;9747;48.536;12.522;2023-03-16T08:39:21;1.90;;;1.80;;
19225;SDS011;9747;48.536;12.522;2023-03-16T08:41:48;2.45;;;1.70;;
19225;SDS011;9747;48.536;12.522;2023-03-16T08:44:35;2.05;;;1.88;;
19225;SDS011;9747;48.536;12.522;2023-03-16T08:47:02;3.38;;;2.22;;
19225;SDS011;9747;48.536;12.522;2023-03-16T08:49:33;2.45;;;1.92;;
19225;SDS011;9747;48.536;12.522;2023-03-16T08:52:09;2.88;;;1.90;;
19225;SDS011;9747;48.536;12.522;2023-03-16T08:54:37;2.53;;;2.05;;
19225;SDS011;9747;48.536;12.522;2023-03-16T08:57:06;2.10;;;2.00;;
19225;SDS011;9747;48.536;12.522;2023-03-16T08:59:34;2.22;;;2.00;;
19225;SDS011;9747;48.536;12.522;2023-03-16T09:02:02;2.33;;;2.13;;
19225;SDS011;9747;48.536;12.522;2023-03-16T09:04:30;2.33;;;2.10;;
19225;SDS011;9747;48.536;12.522;2023-03-16T09:06:59;3.22;;;2.10;;
19225;SDS011;9747;48.536;12.522;2023-03-16T09:09:27;2.25;;;1.88;;
19225;SDS011;9747;48.536;12.522;2023-03-16T09:11:55;3.17;;;2.28;;
19225;SDS011;9747;48.536;12.522;2023-03-16T09:14:23;2.03;;;1.92;;
19225;SDS011;9747;48.536;12.522;2023-03-16T09:16:50;4.13;;;2.30;;
19225;SDS011;9747;48.536;12.522;2023-03-16T09:19:18;3.65;;;2.28;;
19225;SDS011;9747;48.536;12.522;2023-03-16T09:21:47;4.38;;;2.00;;
19225;SDS011;9747;48.536;12.522;2023-03-16T09:24:15;3.42;;;2.00;;
19225;SDS011;9747;48.536;12.522;2023-03-16T09:26:43;2.72;;;2.03;;
19225;SDS011;9747;48.536;12.522;2023-03-16T09:29:10;3.75;;;2.30;;
19225;SDS011;9747;48.536;12.522;2023-03-16T09:31:38;2.10;;;1.98;;
19225;SDS011;9747;48.536;12.522;2023-03-16T09:34:07;3.80;;;1.90;;
19225;SDS011;9747;48.536;12.522;2023-03-16T09:36:34;4.32;;;2.00;;
19225;SDS011;9747;48.536;12.522;2023-03-16T09:39:02;4.65;;;2.10;;
19225;SDS011;9747;48.536;12.522;2023-03-16T09:41:33;3.10;;;2.20;;
19225;SDS011;9747;48.536;12.522;2023-03-16T09:44:16;4.15;;;2.00;;
19225;SDS011;9747;48.536;12.522;2023-03-16T09:46:53;2.45;;;1.80;;
19225;SDS011;9747;48.536;12.522;2023-03-16T09:49:23;3.33;;;2.05;;
19225;SDS011;9747;48.536;12.522;2023-03-16T09:51:57;5.32;;;1.90;;
19225;SDS011;9747;48.536;12.522;2023-03-16T09:54:33;2.25;;;1.80;;
19225;SDS011;9747;48.536;12.522;2023-03-16T09:57:10;1.90;;;1.80;;
19225;SDS011;9747;48.536;12.522;2023-03-16T09:59:43;1.98;;;1.73;;
19225;SDS011;9747;48.536;12.522;2023-03-16T10:02:22;1.90;;;1.80;;
19225;SDS011;9747;48.536;12.522;2023-03-16T10:05:09;3.95;;;1.85;;
19225;SDS011;9747;48.536;12.522;2023-03-16T10:07:41;5.00;;;1.70;;
19225;SDS011;9747;48.536;12.522;2023-03-16T10:10:20;2.30;;;1.73;;
19225;SDS011;9747;48.536;12.522;2023-03-16T10:13:04;1.90;;;1.80;;
19225;SDS011;9747;48.536;12.522;2023-03-16T10:15:40;2.63;;;1.60;;
19225;SDS011;9747;48.536;12.522;2023-03-16T10:18:09;2.22;;;1.83;;
19225;SDS011;9747;48.536;12.522;2023-03-16T10:20:41;2.08;;;1.90;;
19225;SDS011;9747;48.536;12.522;2023-03-16T10:23:13;2.55;;;1.73;;
19225;SDS011;9747;48.536;12.522;2023-03-16T10:25:47;1.77;;;1.67;;
19225;SDS011;9747;48.536;12.522;2023-03-16T10:28:17;2.35;;;1.63;;
19225;SDS011;9747;48.536;12.522;2023-03-16T10:30:47;2.10;;;1.90;;
19225;SDS011;9747;48.536;12.522;2023-03-16T10:33:17;1.70;;;1.60;;
19225;SDS011;9747;48.536;12.522;2023-03-16T10:35:51;2.97;;;2.00;;
19225;SDS011;9747;48.536;12.522;2023-03-16T10:38:27;3.22;;;1.83;;
19225;SDS011;9747;48.536;12.522;2023-03-16T10:40:57;2.85;;;1.85;;
19225;SDS011;9747;48.536;12.522;2023-03-16T10:43:26;2.90;;;1.95;;
19225;SDS011;9747;48.536;12.522;2023-03-16T10:45:59;9.30;;;2.30;;
19225;SDS011;9747;48.536;12.522;2023-03-16T10:48:29;3.72;;;1.58;;
19225;SDS011;9747;48.536;12.522;2023-03-16T10:50:58;1.75;;;1.63;;
19225;SDS011;9747;48.536;12.522;2023-03-16T10:53:30;2.63;;;1.50;;
19225;SDS011;9747;48.536;12.522;2023-03-16T10:56:00;1.83;;;1.70;;
19225;SDS011;9747;48.536;12.522;2023-03-16T10:58:38;2.05;;;1.60;;
19225;SDS011;9747;48.536;12.522;2023-03-16T11:01:09;10.10;;;5.68;;
19225;SDS011;9747;48.536;12.522;2023-03-16T11:03:38;12.43;;;5.00;;
19225;SDS011;9747;48.536;12.522;2023-03-16T11:06:07;8.32;;;4.03;;
19225;SDS011;9747;48.536;12.522;2023-03-16T11:08:47;8.23;;;3.35;;
19225;SDS011;9747;48.536;12.522;2023-03-16T11:11:16;9.82;;;3.15;;
19225;SDS011;9747;48.536;12.522;2023-03-16T11:13:48;10.88;;;3.15;;
19225;SDS011;9747;48.536;12.522;2023-03-16T11:16:23;10.65;;;2.90;;
19225;SDS011;9747;48.536;12.522;2023-03-16T11:18:55;5.68;;;2.65;;
19225;SDS011;9747;48.536;12.522;2023-03-16T11:21:28;8.20;;;2.13;;
19225;SDS011;9747;48.536;12.522;2023-03-16T11:24:04;5.30;;;2.25;;
19225;SDS011;9747;48.536;12.522;2023-03-16T11:26:36;6.20;;;2.22;;
19225;SDS011;9747;48.536;12.522;2023-03-16T11:29:10;4.50;;;2.30;;
19225;SDS011;9747;48.536;12.522;2023-03-16T11:31:44;3.65;;;2.28;;
19225;SDS011;9747;48.536;12.522;2023-03-16T11:34:18;4.80;;;1.95;;
19225;SDS011;9747;48.536;12.522;2023-03-16T11:36:49;3.85;;;2.08;;
19225;SDS011;9747;48.536;12.522;2023-03-16T11:39:27;3.25;;;1.85;;
19225;SDS011;9747;48.536;12.522;2023-03-16T11:42:11;3.75;;;1.80;;
19225;SDS011;9747;48.536;12.522;2023-03-16T11:44:49;3.05;;;1.85;;
19225;SDS011;9747;48.536;12.522;2023-03-16T11:47:29;4.35;;;2.10;;
19225;SDS011;9747;48.536;12.522;2023-03-16T11:50:33;5.07;;;1.95;;
19225;SDS011;9747;48.536;12.522;2023-03-16T11:53:11;3.67;;;1.80;;
19225;SDS011;9747;48.536;12.522;2023-03-16T11:55:48;4.57;;;1.77;;
19225;SDS011;9747;48.536;12.522;2023-03-16T11:58:29;2.75;;;1.85;;
19225;SDS011;9747;48.536;12.522;2023-03-16T12:01:09;4.53;;;1.67;;
19225;SDS011;9747;48.536;12.522;2023-03-16T12:06:52;3.00;;;1.42;;
19225;SDS011;9747;48.536;12.522;2023-03-16T12:09:47;3.50;;;1.83;;
19225;SDS011;9747;48.536;12.522;2023-03-16T12:12:43;3.80;;;1.90;;
19225;SDS011;9747;48.536;12.522;2023-03-16T12:15:34;2.22;;;1.80;;
19225;SDS011;9747;48.536;12.522;2023-03-16T12:18:09;2.70;;;1.90;;
19225;SDS011;9747;48.536;12.522;2023-03-16T12:20:43;2.72;;;1.77;;
19225;SDS011;9747;48.536;12.522;2023-03-16T12:23:17;3.65;;;1.58;;
19225;SDS011;9747;48.536;12.522;2023-03-16T12:25:47;1.75;;;1.50;;
19225;SDS011;9747;48.536;12.522;2023-03-16T12:28:20;2.67;;;1.30;;
19225;SDS011;9747;48.536;12.522;2023-03-16T12:30:52;1.63;;;1.40;;
19225;SDS011;9747;48.536;12.522;2023-03-16T12:33:42;1.60;;;1.50;;
19225;SDS011;9747;48.536;12.522;2023-03-16T12:36:33;3.25;;;1.35;;
19225;SDS011;9747;48.536;12.522;2023-03-16T12:42:37;1.85;;;1.75;;
19225;SDS011;9747;48.536;12.522;2023-03-16T12:45:28;2.70;;;1.40;;
19225;SDS011;9747;48.536;12.522;2023-03-16T12:48:04;1.98;;;1.40;;
19225;SDS011;9747;48.536;12.522;2023-03-16T12:50:50;3.72;;;1.63;;
19225;SDS011;9747;48.536;12.522;2023-03-16T12:53:38;2.33;;;1.40;;
19225;SDS011;9747;48.536;12.522;2023-03-16T12:56:10;3.88;;;1.70;;
19225;SDS011;9747;48.536;12.522;2023-03-16T12:58:44;1.63;;;1.40;;
19225;SDS011;9747;48.536;12.522;2023-03-16T13:01:15;1.75;;;1.48;;
19225;SDS011;9747;48.536;12.522;2023-03-16T13:03:46;4.60;;;1.70;;
19225;SDS011;9747;48.536;12.522;2023-03-16T13:06:17;2.05;;;1.60;;
19225;SDS011;9747;48.536;12.522;2023-03-16T13:08:48;2.83;;;1.60;;
19225;SDS011;9747;48.536;12.522;2023-03-16T13:11:18;3.35;;;1.70;;
19225;SDS011;9747;48.536;12.522;2023-03-16T13:13:46;2.97;;;1.50;;
19225;SDS011;9747;48.536;12.522;2023-03-16T13:16:23;3.67;;;1.65;;
19225;SDS011;9747;48.536;12.522;2023-03-16T13:18:53;2.47;;;1.73;;
19225;SDS011;9747;48.536;12.522;2023-03-16T13:21:33;2.08;;;1.50;;
19225;SDS011;9747;48.536;12.522;2023-03-16T13:24:12;2.83;;;1.50;;
19225;SDS011;9747;48.536;12.522;2023-03-16T13:26:48;3.95;;;1.50;;
19225;SDS011;9747;48.536;12.522;2023-03-16T13:29:21;3.17;;;1.70;;
19225;SDS011;9747;48.536;12.522;2023-03-16T13:31:51;2.47;;;1.48;;
19225;SDS011;9747;48.536;12.522;2023-03-16T13:34:21;5.13;;;1.58;;
19225;SDS011;9747;48.536;12.522;2023-03-16T13:36:53;2.13;;;1.63;;
19225;SDS011;9747;48.536;12.522;2023-03-16T13:39:23;3.33;;;1.50;;
19225;SDS011;9747;48.536;12.522;2023-03-16T13:41:56;2.90;;;1.50;;
19225;SDS011;9747;48.536;12.522;2023-03-16T13:44:27;3.55;;;2.10;;
19225;SDS011;9747;48.536;12.522;2023-03-16T13:46:56;2.97;;;2.78;;
19225;SDS011;9747;48.536;12.522;2023-03-16T13:49:27;3.45;;;3.15;;
19225;SDS011;9747;48.536;12.522;2023-03-16T13:51:56;4.10;;;3.38;;
19225;SDS011;9747;48.536;12.522;2023-03-16T13:54:24;3.85;;;3.60;;
19225;SDS011;9747;48.536;12.522;2023-03-16T13:56:54;5.10;;;4.70;;
19225;SDS011;9747;48.536;12.522;2023-03-16T13:59:24;3.85;;;3.55;;
19225;SDS011;9747;48.536;12.522;2023-03-16T14:01:53;4.13;;;3.83;;
19225;SDS011;9747;48.536;12.522;2023-03-16T14:04:24;4.15;;;3.75;;
19225;SDS011;9747;48.536;12.522;2023-03-16T14:06:54;3.35;;;3.03;;
19225;SDS011;9747;48.536;12.522;2023-03-16T14:09:25;3.13;;;2.90;;
19225;SDS011;9747;48.536;12.522;2023-03-16T14:11:53;3.33;;;3.13;;
19225;SDS011;9747;48.536;12.522;2023-03-16T14:14:26;3.15;;;2.85;;
19225;SDS011;9747;48.536;12.522;2023-03-16T14:16:59;4.47;;;3.53;;
19225;SDS011;9747;48.536;12.522;2023-03-16T14:19:29;3.35;;;3.15;;
19225;SDS011;9747;48.536;12.522;2023-03-16T14:22:10;3.70;;;3.40;;
19225;SDS011;9747;48.536;12.522;2023-03-16T14:24:40;2.88;;;2.67;;
19225;SDS011;9747;48.536;12.522;2023-03-16T14:27:13;2.75;;;2.60;;
19225;SDS011;9747;48.536;12.522;2023-03-16T14:29:45;3.72;;;3.40;;
19225;SDS011;9747;48.536;12.522;2023-03-16T14:32:26;4.05;;;3.38;;
19225;SDS011;9747;48.536;12.522;2023-03-16T14:37:47;3.60;;;3.33;;
19225;SDS011;9747;48.536;12.522;2023-03-16T14:40:26;8.15;;;3.75;;
19225;SDS011;9747;48.536;12.522;2023-03-16T14:42:56;7.10;;;3.70;;
19225;SDS011;9747;48.536;12.522;2023-03-16T14:45:27;3.70;;;3.38;;
19225;SDS011;9747;48.536;12.522;2023-03-16T14:48:02;4.22;;;3.42;;
19225;SDS011;9747;48.536;12.522;2023-03-16T14:50:31;3.47;;;3.28;;
19225;SDS011;9747;48.536;12.522;2023-03-16T14:53:00;3.72;;;3.42;;
19225;SDS011;9747;48.536;12.522;2023-03-16T14:55:28;3.58;;;3.38;;
19225;SDS011;9747;48.536;12.522;2023-03-16T14:57:56;3.63;;;3.35;;
19225;SDS011;9747;48.536;12.522;2023-03-16T15:00:24;3.72;;;3.40;;
19225;SDS011;9747;48.536;12.522;2023-03-16T15:02:53;4.03;;;3.38;;
19225;SDS011;9747;48.536;12.522;2023-03-16T15:05:29;3.88;;;3.58;;
19225;SDS011;9747;48.536;12.522;2023-03-16T15:08:00;3.30;;;3.08;;
19225;SDS011;9747;48.536;12.522;2023-03-16T15:10:29;3.50;;;3.20;;
19225;SDS011;9747;48.536;12.522;2023-03-16T15:12:58;4.07;;;3.13;;
19225;SDS011;9747;48.536;12.522;2023-03-16T15:15:37;3.47;;;3.28;;
19225;SDS011;9747;48.536;12.522;2023-03-16T15:18:07;3.50;;;3.30;;
19225;SDS011;9747;48.536;12.522;2023-03-16T15:20:37;4.53;;;3.58;;
19225;SDS011;9747;48.536;12.522;2023-03-16T15:23:09;3.75;;;2.70;;
19225;SDS011;9747;48.536;12.522;2023-03-16T15:25:40;4.45;;;2.95;;